sensor_id;sensor_type;location;lat;lon;timestamp;pressure;altitude;pressure_sealevel;temperature;humidity
11971;BME280;6045;42.682;23.294;2023-03-18T00:01:00;95037.13;;;3.63;74.81
11971;BME280;6045;42.682;23.294;2023-03-18T00:03:28;95027.81;;;3.53;75.30
11971;BME280;6045;42.682;23.294;2023-03-18T00:06:02;95034.59;;;3.55;75.00
11971;BME280;6045;42.682;23.294;2023-03-18T00:08:29;95040.50;;;3.57;75.13
11971;BME280;6045;42.682;23.294;2023-03-18T00:10:57;95033.69;;;3.63;75.28
11971;BME280;6045;42.682;23.294;2023-03-18T00:13:24;95025.41;;;3.66;74.61
11971;BME280;6045;42.682;23.294;2023-03-18T00:15:53;95030.34;;;3.69;74.36
11971;BME280;6045;42.682;23.294;2023-03-18T00:18:20;95017.94;;;3.69;74.18
11971;BME280;6045;42.682;23.294;2023-03-18T00:20:46;95020.41;;;3.71;74.19
11971;BME280;6045;42.682;23.294;2023-03-18T00:23:13;95019.22;;;3.73;74.37
11971;BME280;6045;42.682;23.294;2023-03-18T00:25:41;95018.88;;;3.76;74.14
11971;BME280;6045;42.682;23.294;2023-03-18T00:28:08;95020.50;;;3.77;74.04
11971;BME280;6045;42.682;23.294;2023-03-18T00:30:37;95010.94;;;3.76;74.05
11971;BME280;6045;42.682;23.294;2023-03-18T00:33:05;95012.75;;;3.76;74.60
11971;BME280;6045;42.682;23.294;2023-03-18T00:35:32;95006.84;;;3.74;74.52
11971;BME280;6045;42.682;23.294;2023-03-18T00:38:01;95017.56;;;3.72;74.43
11971;BME280;6045;42.682;23.294;2023-03-18T00:40:32;95009.00;;;3.70;74.01
11971;BME280;6045;42.682;23.294;2023-03-18T00:43:18;95001.25;;;3.69;74.54
11971;BME280;6045;42.682;23.294;2023-03-18T00:45:47;95002.44;;;3.66;74.81
11971;BME280;6045;42.682;23.294;2023-03-18T00:48:16;94995.41;;;3.59;75.87
11971;BME280;6045;42.682;23.294;2023-03-18T00:50:43;94995.41;;;3.59;75.96
11971;BME280;6045;42.682;23.294;2023-03-18T00:53:11;94987.06;;;3.47;76.40
11971;BME280;6045;42.682;23.294;2023-03-18T00:55:39;94983.44;;;3.48;76.85
11971;BME280;6045;42.682;23.294;2023-03-18T00:58:06;94983.31;;;3.41;77.10
11971;BME280;6045;42.682;23.294;2023-03-18T01:00:33;94981.03;;;3.38;76.99
11971;BME280;6045;42.682;23.294;2023-03-18T01:03:00;94971.81;;;3.34;77.07
11971;BME280;6045;42.682;23.294;2023-03-18T01:05:28;94976.75;;;3.37;77.20
11971;BME280;6045;42.682;23.294;2023-03-18T01:07:55;94977.22;;;3.41;77.38
11971;BME280;6045;42.682;23.294;2023-03-18T01:10:23;94972.28;;;3.38;77.18
11971;BME280;6045;42.682;23.294;2023-03-18T01:12:50;94974.09;;;3.37;77.54
11971;BME280;6045;42.682;23.294;2023-03-18T01:15:19;94965.34;;;3.37;77.04
11971;BME280;6045;42.682;23.294;2023-03-18T01:17:46;94966.19;;;3.37;77.52
11971;BME280;6045;42.682;23.294;2023-03-18T01:20:17;94969.84;;;3.36;77.42
11971;BME280;6045;42.682;23.294;2023-03-18T01:22:45;94967.00;;;3.38;77.22
11971;BME280;6045;42.682;23.294;2023-03-18T01:25:13;94963.19;;;3.40;77.14
11971;BME280;6045;42.682;23.294;2023-03-18T01:27:41;94974.59;;;3.41;77.16
11971;BME280;6045;42.682;23.294;2023-03-18T01:30:10;94963.53;;;3.37;77.13
11971;BME280;6045;42.682;23.294;2023-03-18T01:32:37;94958.44;;;3.36;77.15
11971;BME280;6045;42.682;23.294;2023-03-18T01:35:06;94962.38;;;3.40;77.00
11971;BME280;6045;42.682;23.294;2023-03-18T01:37:33;94964.81;;;3.41;76.75
11971;BME280;6045;42.682;23.294;2023-03-18T01:40:01;94966.13;;;3.45;76.67
11971;BME280;6045;42.682;23.294;2023-03-18T01:42:28;94959.03;;;3.46;76.46
11971;BME280;6045;42.682;23.294;2023-03-18T01:45:14;94958.19;;;3.45;76.24
11971;BME280;6045;42.682;23.294;2023-03-18T01:47:42;94968.78;;;3.45;76.39
11971;BME280;6045;42.682;23.294;2023-03-18T01:50:11;94960.84;;;3.45;76.81
11971;BME280;6045;42.682;23.294;2023-03-18T01:52:40;94962.84;;;3.43;76.76
11971;BME280;6045;42.682;23.294;2023-03-18T01:55:11;94960.34;;;3.42;76.73
11971;BME280;6045;42.682;23.294;2023-03-18T01:57:40;94953.81;;;3.38;76.65
11971;BME280;6045;42.682;23.294;2023-03-18T02:00:10;94953.16;;;3.36;77.11
11971;BME280;6045;42.682;23.294;2023-03-18T02:02:38;94962.56;;;3.38;76.65
11971;BME280;6045;42.682;23.294;2023-03-18T02:05:09;94948.72;;;3.36;76.27
11971;BME280;6045;42.682;23.294;2023-03-18T02:07:40;94937.31;;;3.36;76.89
11971;BME280;6045;42.682;23.294;2023-03-18T02:10:11;94945.59;;;3.33;76.51
11971;BME280;6045;42.682;23.294;2023-03-18T02:12:43;94946.94;;;3.29;76.58
11971;BME280;6045;42.682;23.294;2023-03-18T02:15:12;94940.00;;;3.28;76.51
11971;BME280;6045;42.682;23.294;2023-03-18T02:17:43;94946.47;;;3.25;76.94
11971;BME280;6045;42.682;23.294;2023-03-18T02:20:18;94947.28;;;3.26;76.90
11971;BME280;6045;42.682;23.294;2023-03-18T02:22:51;94941.03;;;3.27;77.41
11971;BME280;6045;42.682;23.294;2023-03-18T02:25:30;94948.31;;;3.25;76.80
11971;BME280;6045;42.682;23.294;2023-03-18T02:28:01;94940.72;;;3.22;76.74
11971;BME280;6045;42.682;23.294;2023-03-18T02:30:34;94947.06;;;3.13;77.18
11971;BME280;6045;42.682;23.294;2023-03-18T02:33:04;94946.06;;;3.14;76.99
11971;BME280;6045;42.682;23.294;2023-03-18T02:35:31;94938.84;;;3.08;76.83
11971;BME280;6045;42.682;23.294;2023-03-18T02:37:59;94949.13;;;3.03;77.19
11971;BME280;6045;42.682;23.294;2023-03-18T02:40:28;94953.75;;;3.01;77.03
11971;BME280;6045;42.682;23.294;2023-03-18T02:42:56;94945.00;;;3.00;77.25
11971;BME280;6045;42.682;23.294;2023-03-18T02:45:34;94946.81;;;3.00;77.19
11971;BME280;6045;42.682;23.294;2023-03-18T02:48:05;94947.19;;;2.97;77.26
11971;BME280;6045;42.682;23.294;2023-03-18T02:50:33;94944.56;;;2.97;77.09
11971;BME280;6045;42.682;23.294;2023-03-18T02:53:00;94938.59;;;2.95;77.80
11971;BME280;6045;42.682;23.294;2023-03-18T02:55:28;94937.81;;;2.94;78.00
11971;BME280;6045;42.682;23.294;2023-03-18T02:57:55;94938.25;;;2.98;77.89
11971;BME280;6045;42.682;23.294;2023-03-18T03:00:22;94933.31;;;2.95;78.38
11971;BME280;6045;42.682;23.294;2023-03-18T03:02:51;94938.59;;;2.95;78.40
11971;BME280;6045;42.682;23.294;2023-03-18T03:05:18;94939.44;;;2.95;78.35
11971;BME280;6045;42.682;23.294;2023-03-18T03:07:45;94938.78;;;2.93;78.07
11971;BME280;6045;42.682;23.294;2023-03-18T03:10:12;94940.25;;;2.96;78.07
11971;BME280;6045;42.682;23.294;2023-03-18T03:12:39;94942.25;;;2.94;77.45
11971;BME280;6045;42.682;23.294;2023-03-18T03:15:07;94943.44;;;2.91;77.67
11971;BME280;6045;42.682;23.294;2023-03-18T03:17:34;94951.38;;;2.83;77.86
11971;BME280;6045;42.682;23.294;2023-03-18T03:20:03;94949.22;;;2.87;78.13
11971;BME280;6045;42.682;23.294;2023-03-18T03:22:30;94949.38;;;2.85;78.05
11971;BME280;6045;42.682;23.294;2023-03-18T03:24:57;94952.41;;;2.82;77.88
11971;BME280;6045;42.682;23.294;2023-03-18T03:27:25;94952.84;;;2.86;77.85
11971;BME280;6045;42.682;23.294;2023-03-18T03:29:52;94956.50;;;2.85;77.97
11971;BME280;6045;42.682;23.294;2023-03-18T03:32:19;94960.66;;;2.79;78.23
11971;BME280;6045;42.682;23.294;2023-03-18T03:34:47;94952.56;;;2.81;77.86
11971;BME280;6045;42.682;23.294;2023-03-18T03:37:15;94953.56;;;2.80;77.94
11971;BME280;6045;42.682;23.294;2023-03-18T03:39:42;94956.38;;;2.78;78.13
11971;BME280;6045;42.682;23.294;2023-03-18T03:42:09;94961.81;;;2.76;78.19
11971;BME280;6045;42.682;23.294;2023-03-18T03:44:36;94956.88;;;2.73;78.08
11971;BME280;6045;42.682;23.294;2023-03-18T03:47:03;94962.53;;;2.70;78.06
11971;BME280;6045;42.682;23.294;2023-03-18T03:49:31;94959.25;;;2.68;78.49
11971;BME280;6045;42.682;23.294;2023-03-18T03:51:57;94968.16;;;2.67;78.27
11971;BME280;6045;42.682;23.294;2023-03-18T03:54:25;94964.88;;;2.65;77.99
11971;BME280;6045;42.682;23.294;2023-03-18T03:56:52;94966.22;;;2.61;78.57
11971;BME280;6045;42.682;23.294;2023-03-18T03:59:19;94968.84;;;2.61;78.59
11971;BME280;6045;42.682;23.294;2023-03-18T04:01:46;94954.97;;;2.59;78.75
11971;BME280;6045;42.682;23.294;2023-03-18T04:04:12;94962.56;;;2.62;78.55
11971;BME280;6045;42.682;23.294;2023-03-18T04:06:40;94963.22;;;2.64;78.35
11971;BME280;6045;42.682;23.294;2023-03-18T04:09:07;94963.56;;;2.61;78.06
11971;BME280;6045;42.682;23.294;2023-03-18T04:11:35;94970.16;;;2.57;77.98
11971;BME280;6045;42.682;23.294;2023-03-18T04:14:02;94965.06;;;2.56;78.27
11971;BME280;6045;42.682;23.294;2023-03-18T04:16:28;94973.81;;;2.56;78.25
11971;BME280;6045;42.682;23.294;2023-03-18T04:18:56;94980.91;;;2.56;77.94
11971;BME280;6045;42.682;23.294;2023-03-18T04:21:22;94976.78;;;2.53;78.45
11971;BME280;6045;42.682;23.294;2023-03-18T04:23:49;94985.34;;;2.55;78.20
11971;BME280;6045;42.682;23.294;2023-03-18T04:26:16;94989.66;;;2.56;78.13
11971;BME280;6045;42.682;23.294;2023-03-18T04:28:44;94989.78;;;2.55;78.19
11971;BME280;6045;42.682;23.294;2023-03-18T04:31:11;94992.13;;;2.50;78.01
11971;BME280;6045;42.682;23.294;2023-03-18T04:33:39;94993.66;;;2.44;78.57
11971;BME280;6045;42.682;23.294;2023-03-18T04:36:06;95001.56;;;2.44;78.49
11971;BME280;6045;42.682;23.294;2023-03-18T04:38:33;95002.53;;;2.43;78.65
11971;BME280;6045;42.682;23.294;2023-03-18T04:41:00;95003.72;;;2.41;78.49
11971;BME280;6045;42.682;23.294;2023-03-18T04:43:28;95011.78;;;2.39;78.53
11971;BME280;6045;42.682;23.294;2023-03-18T04:45:56;95005.03;;;2.45;79.43
11971;BME280;6045;42.682;23.294;2023-03-18T04:48:23;95008.00;;;2.42;79.90
11971;BME280;6045;42.682;23.294;2023-03-18T04:50:50;95009.13;;;2.47;80.27
11971;BME280;6045;42.682;23.294;2023-03-18T04:53:16;95008.47;;;2.45;79.96
11971;BME280;6045;42.682;23.294;2023-03-18T04:55:43;95009.94;;;2.48;79.65
11971;BME280;6045;42.682;23.294;2023-03-18T04:58:10;95012.03;;;4.63;100.00
11971;BME280;6045;42.682;23.294;2023-03-18T05:00:37;95006.50;;;5.72;100.00
11971;BME280;6045;42.682;23.294;2023-03-18T05:03:05;95008.06;;;6.70;91.87
11971;BME280;6045;42.682;23.294;2023-03-18T05:05:32;95007.75;;;7.60;80.80
11971;BME280;6045;42.682;23.294;2023-03-18T05:07:59;95013.94;;;8.46;73.56
11971;BME280;6045;42.682;23.294;2023-03-18T05:10:26;95001.47;;;9.54;89.12
11971;BME280;6045;42.682;23.294;2023-03-18T05:12:53;95007.53;;;9.37;69.55
11971;BME280;6045;42.682;23.294;2023-03-18T05:15:20;95008.84;;;9.15;71.38
11971;BME280;6045;42.682;23.294;2023-03-18T05:17:46;94992.38;;;10.49;89.76
11971;BME280;6045;42.682;23.294;2023-03-18T05:20:15;94995.75;;;11.65;85.49
11971;BME280;6045;42.682;23.294;2023-03-18T05:22:41;94995.81;;;12.06;58.80
11971;BME280;6045;42.682;23.294;2023-03-18T05:25:08;94990.66;;;11.45;50.96
11971;BME280;6045;42.682;23.294;2023-03-18T05:27:37;94994.72;;;10.64;51.45
11971;BME280;6045;42.682;23.294;2023-03-18T05:30:05;94999.28;;;10.07;54.14
11971;BME280;6045;42.682;23.294;2023-03-18T05:32:32;94997.91;;;9.67;53.54
11971;BME280;6045;42.682;23.294;2023-03-18T05:34:59;94996.88;;;9.30;54.43
11971;BME280;6045;42.682;23.294;2023-03-18T05:37:27;94987.59;;;9.02;55.78
11971;BME280;6045;42.682;23.294;2023-03-18T05:39:54;94992.97;;;8.82;55.55
11971;BME280;6045;42.682;23.294;2023-03-18T05:42:21;95001.97;;;8.81;57.63
11971;BME280;6045;42.682;23.294;2023-03-18T05:44:47;95000.72;;;8.97;57.11
11971;BME280;6045;42.682;23.294;2023-03-18T05:47:14;95001.53;;;8.97;57.22
11971;BME280;6045;42.682;23.294;2023-03-18T05:49:42;95004.94;;;9.17;59.54
11971;BME280;6045;42.682;23.294;2023-03-18T05:52:09;95011.16;;;9.49;58.49
11971;BME280;6045;42.682;23.294;2023-03-18T05:54:37;95012.88;;;9.99;62.61
11971;BME280;6045;42.682;23.294;2023-03-18T05:57:03;95008.81;;;10.53;58.30
11971;BME280;6045;42.682;23.294;2023-03-18T05:59:31;95015.41;;;10.50;59.56
11971;BME280;6045;42.682;23.294;2023-03-18T06:01:58;95011.50;;;10.71;54.70
11971;BME280;6045;42.682;23.294;2023-03-18T06:04:25;95020.69;;;10.57;52.58
11971;BME280;6045;42.682;23.294;2023-03-18T06:06:52;95023.13;;;10.58;53.01
11971;BME280;6045;42.682;23.294;2023-03-18T06:09:20;95025.03;;;10.76;51.11
11971;BME280;6045;42.682;23.294;2023-03-18T06:11:49;95020.50;;;11.13;51.03
11971;BME280;6045;42.682;23.294;2023-03-18T06:14:15;95019.97;;;11.40;50.18
11971;BME280;6045;42.682;23.294;2023-03-18T06:16:43;95015.00;;;11.08;49.82
11971;BME280;6045;42.682;23.294;2023-03-18T06:19:10;95029.03;;;10.85;50.34
11971;BME280;6045;42.682;23.294;2023-03-18T06:21:37;95027.44;;;11.02;57.73
11971;BME280;6045;42.682;23.294;2023-03-18T06:24:05;95016.13;;;11.18;49.99
11971;BME280;6045;42.682;23.294;2023-03-18T06:26:32;95029.47;;;11.73;58.90
11971;BME280;6045;42.682;23.294;2023-03-18T06:29:01;95025.28;;;11.77;48.00
11971;BME280;6045;42.682;23.294;2023-03-18T06:31:28;95020.13;;;11.27;48.71
11971;BME280;6045;42.682;23.294;2023-03-18T06:33:55;95023.47;;;10.86;49.15
11971;BME280;6045;42.682;23.294;2023-03-18T06:36:22;95016.66;;;10.48;50.64
11971;BME280;6045;42.682;23.294;2023-03-18T06:38:49;95008.91;;;10.64;51.59
11971;BME280;6045;42.682;23.294;2023-03-18T06:41:17;94996.78;;;10.98;49.90
11971;BME280;6045;42.682;23.294;2023-03-18T06:43:43;95005.06;;;10.96;50.18
11971;BME280;6045;42.682;23.294;2023-03-18T06:46:13;94993.03;;;10.87;50.75
11971;BME280;6045;42.682;23.294;2023-03-18T06:48:43;94999.31;;;10.93;48.57
11971;BME280;6045;42.682;23.294;2023-03-18T06:51:13;94996.09;;;11.39;48.43
11971;BME280;6045;42.682;23.294;2023-03-18T06:53:40;94995.03;;;11.58;48.03
11971;BME280;6045;42.682;23.294;2023-03-18T06:56:07;95000.22;;;11.71;47.83
11971;BME280;6045;42.682;23.294;2023-03-18T06:58:34;95002.09;;;12.00;47.95
11971;BME280;6045;42.682;23.294;2023-03-18T07:01:01;94993.41;;;12.40;46.82
11971;BME280;6045;42.682;23.294;2023-03-18T07:03:29;95000.06;;;12.72;46.25
11971;BME280;6045;42.682;23.294;2023-03-18T07:05:57;95001.25;;;13.11;45.01
11971;BME280;6045;42.682;23.294;2023-03-18T07:08:23;94991.84;;;13.36;46.67
11971;BME280;6045;42.682;23.294;2023-03-18T07:10:51;94993.53;;;13.26;45.23
11971;BME280;6045;42.682;23.294;2023-03-18T07:13:18;95003.47;;;13.53;44.50
11971;BME280;6045;42.682;23.294;2023-03-18T07:15:45;95001.94;;;14.14;44.30
11971;BME280;6045;42.682;23.294;2023-03-18T07:18:11;94994.34;;;14.11;42.75
11971;BME280;6045;42.682;23.294;2023-03-18T07:20:39;94993.38;;;14.17;41.88
11971;BME280;6045;42.682;23.294;2023-03-18T07:23:07;94998.38;;;13.97;43.97
11971;BME280;6045;42.682;23.294;2023-03-18T07:25:35;94995.41;;;14.10;45.36
11971;BME280;6045;42.682;23.294;2023-03-18T07:28:02;94997.00;;;14.39;42.12
11971;BME280;6045;42.682;23.294;2023-03-18T07:30:30;94995.22;;;14.61;41.76
11971;BME280;6045;42.682;23.294;2023-03-18T07:32:57;94989.38;;;14.64;41.72
11971;BME280;6045;42.682;23.294;2023-03-18T07:35:24;94997.44;;;14.64;41.17
11971;BME280;6045;42.682;23.294;2023-03-18T07:37:52;95002.38;;;14.72;41.07
11971;BME280;6045;42.682;23.294;2023-03-18T07:40:19;95004.34;;;14.77;40.99
11971;BME280;6045;42.682;23.294;2023-03-18T07:42:45;95007.84;;;14.77;41.32
11971;BME280;6045;42.682;23.294;2023-03-18T07:45:12;95005.59;;;14.86;42.13
11971;BME280;6045;42.682;23.294;2023-03-18T07:47:39;95000.84;;;14.76;42.03
11971;BME280;6045;42.682;23.294;2023-03-18T07:50:07;95006.13;;;15.26;41.24
11971;BME280;6045;42.682;23.294;2023-03-18T07:52:34;95006.31;;;15.20;39.80
11971;BME280;6045;42.682;23.294;2023-03-18T07:55:03;95001.94;;;15.14;45.56
11971;BME280;6045;42.682;23.294;2023-03-18T07:57:30;94997.34;;;14.59;42.75
11971;BME280;6045;42.682;23.294;2023-03-18T07:59:57;95008.06;;;14.26;44.35
11971;BME280;6045;42.682;23.294;2023-03-18T08:02:23;95010.81;;;14.59;44.75
11971;BME280;6045;42.682;23.294;2023-03-18T08:04:52;94998.25;;;14.48;42.52
11971;BME280;6045;42.682;23.294;2023-03-18T08:07:18;95006.06;;;14.50;45.62
11971;BME280;6045;42.682;23.294;2023-03-18T08:09:47;95002.34;;;15.05;43.08
11971;BME280;6045;42.682;23.294;2023-03-18T08:12:16;94996.91;;;15.60;39.18
11971;BME280;6045;42.682;23.294;2023-03-18T08:14:43;94992.06;;;15.84;40.00
11971;BME280;6045;42.682;23.294;2023-03-18T08:17:10;94987.38;;;16.55;38.03
11971;BME280;6045;42.682;23.294;2023-03-18T08:19:37;94991.84;;;17.13;35.15
11971;BME280;6045;42.682;23.294;2023-03-18T08:22:04;95002.47;;;17.29;34.84
11971;BME280;6045;42.682;23.294;2023-03-18T08:24:30;94992.41;;;17.20;35.81
11971;BME280;6045;42.682;23.294;2023-03-18T08:26:58;95001.31;;;17.62;35.15
11971;BME280;6045;42.682;23.294;2023-03-18T08:29:26;95004.09;;;17.77;34.29
11971;BME280;6045;42.682;23.294;2023-03-18T08:31:53;95009.47;;;17.72;34.38
11971;BME280;6045;42.682;23.294;2023-03-18T08:34:19;95004.94;;;17.93;34.29
11971;BME280;6045;42.682;23.294;2023-03-18T08:36:47;94994.63;;;17.80;34.73
11971;BME280;6045;42.682;23.294;2023-03-18T08:39:13;94995.00;;;16.99;38.04
11971;BME280;6045;42.682;23.294;2023-03-18T08:41:40;94995.56;;;17.01;37.96
11971;BME280;6045;42.682;23.294;2023-03-18T08:44:07;94992.31;;;17.46;36.97
11971;BME280;6045;42.682;23.294;2023-03-18T08:46:36;95002.25;;;17.98;34.91
11971;BME280;6045;42.682;23.294;2023-03-18T08:49:04;94998.47;;;17.94;34.53
11971;BME280;6045;42.682;23.294;2023-03-18T08:51:31;94994.72;;;17.43;37.54
11971;BME280;6045;42.682;23.294;2023-03-18T08:53:59;95000.09;;;17.95;57.25
11971;BME280;6045;42.682;23.294;2023-03-18T08:56:26;95000.19;;;18.25;48.33
11971;BME280;6045;42.682;23.294;2023-03-18T08:58:53;94995.56;;;19.41;50.10
11971;BME280;6045;42.682;23.294;2023-03-18T09:01:20;94997.94;;;20.32;48.00
11971;BME280;6045;42.682;23.294;2023-03-18T09:03:48;94997.53;;;20.87;45.01
11971;BME280;6045;42.682;23.294;2023-03-18T09:06:15;94995.19;;;20.37;44.33
11971;BME280;6045;42.682;23.294;2023-03-18T09:08:42;94998.00;;;20.94;40.65
11971;BME280;6045;42.682;23.294;2023-03-18T09:11:09;94994.91;;;21.63;41.70
11971;BME280;6045;42.682;23.294;2023-03-18T09:13:36;94992.66;;;21.94;37.93
11971;BME280;6045;42.682;23.294;2023-03-18T09:16:03;94997.34;;;22.31;41.27
11971;BME280;6045;42.682;23.294;2023-03-18T09:18:30;94996.69;;;22.20;37.22
11971;BME280;6045;42.682;23.294;2023-03-18T09:20:58;94994.06;;;21.92;39.46
11971;BME280;6045;42.682;23.294;2023-03-18T09:23:25;94999.97;;;21.99;32.50
11971;BME280;6045;42.682;23.294;2023-03-18T09:25:53;95001.06;;;21.98;30.25
11971;BME280;6045;42.682;23.294;2023-03-18T09:28:21;94996.16;;;21.24;27.23
11971;BME280;6045;42.682;23.294;2023-03-18T09:30:49;94997.47;;;19.31;32.17
11971;BME280;6045;42.682;23.294;2023-03-18T09:33:16;94999.72;;;17.66;30.49
11971;BME280;6045;42.682;23.294;2023-03-18T09:35:42;95000.22;;;17.11;33.48
11971;BME280;6045;42.682;23.294;2023-03-18T09:38:12;94998.06;;;17.13;31.15
11971;BME280;6045;42.682;23.294;2023-03-18T09:40:46;94991.78;;;17.02;33.29
11971;BME280;6045;42.682;23.294;2023-03-18T09:43:25;95003.59;;;17.38;33.29
11971;BME280;6045;42.682;23.294;2023-03-18T09:46:00;94994.19;;;17.46;34.49
11971;BME280;6045;42.682;23.294;2023-03-18T09:48:53;94998.63;;;17.57;33.41
11971;BME280;6045;42.682;23.294;2023-03-18T09:51:35;94989.78;;;17.87;33.57
11971;BME280;6045;42.682;23.294;2023-03-18T09:54:11;94997.44;;;18.15;31.95
11971;BME280;6045;42.682;23.294;2023-03-18T09:56:42;94996.13;;;18.22;46.92
11971;BME280;6045;42.682;23.294;2023-03-18T09:59:15;94986.63;;;19.41;49.85
11971;BME280;6045;42.682;23.294;2023-03-18T10:01:46;94990.41;;;19.35;46.05
11971;BME280;6045;42.682;23.294;2023-03-18T10:04:18;94985.91;;;19.94;30.90
11971;BME280;6045;42.682;23.294;2023-03-18T10:06:46;94992.19;;;20.38;43.79
11971;BME280;6045;42.682;23.294;2023-03-18T10:09:19;94981.09;;;20.69;41.48
11971;BME280;6045;42.682;23.294;2023-03-18T10:11:49;94982.97;;;21.07;34.72
11971;BME280;6045;42.682;23.294;2023-03-18T10:14:23;94991.81;;;21.46;39.19
11971;BME280;6045;42.682;23.294;2023-03-18T10:17:02;94979.09;;;21.42;37.75
11971;BME280;6045;42.682;23.294;2023-03-18T10:19:32;94994.25;;;20.90;37.41
11971;BME280;6045;42.682;23.294;2023-03-18T10:22:19;94996.06;;;21.57;34.29
11971;BME280;6045;42.682;23.294;2023-03-18T10:24:55;94989.66;;;20.86;31.44
11971;BME280;6045;42.682;23.294;2023-03-18T10:27:37;94981.19;;;20.92;33.43
11971;BME280;6045;42.682;23.294;2023-03-18T10:30:20;94976.72;;;21.06;27.56
11971;BME280;6045;42.682;23.294;2023-03-18T10:32:58;94984.44;;;20.61;28.01
11971;BME280;6045;42.682;23.294;2023-03-18T10:35:35;94978.28;;;20.84;27.97
11971;BME280;6045;42.682;23.294;2023-03-18T10:38:10;94979.03;;;20.56;28.52
11971;BME280;6045;42.682;23.294;2023-03-18T10:40:45;94980.31;;;20.29;36.99
11971;BME280;6045;42.682;23.294;2023-03-18T10:43:17;94971.94;;;20.60;34.61
11971;BME280;6045;42.682;23.294;2023-03-18T10:45:45;94973.19;;;21.01;30.49
11971;BME280;6045;42.682;23.294;2023-03-18T10:48:18;94978.91;;;21.86;26.81
11971;BME280;6045;42.682;23.294;2023-03-18T10:50:51;94982.34;;;21.67;32.10
11971;BME280;6045;42.682;23.294;2023-03-18T10:53:26;94974.81;;;21.07;30.34
11971;BME280;6045;42.682;23.294;2023-03-18T10:55:58;94972.97;;;21.31;32.13
11971;BME280;6045;42.682;23.294;2023-03-18T10:58:28;94967.81;;;20.28;23.80
11971;BME280;6045;42.682;23.294;2023-03-18T11:00:56;94960.91;;;19.38;24.69
11971;BME280;6045;42.682;23.294;2023-03-18T11:03:26;94956.00;;;19.40;26.20
11971;BME280;6045;42.682;23.294;2023-03-18T11:05:56;94965.28;;;18.33;25.95
11971;BME280;6045;42.682;23.294;2023-03-18T11:08:31;94971.22;;;17.48;28.38
11971;BME280;6045;42.682;23.294;2023-03-18T11:11:13;94972.34;;;16.37;32.10
11971;BME280;6045;42.682;23.294;2023-03-18T11:13:46;94966.09;;;15.13;34.38
11971;BME280;6045;42.682;23.294;2023-03-18T11:16:21;94980.09;;;14.10;34.98
11971;BME280;6045;42.682;23.294;2023-03-18T11:18:50;94983.81;;;13.64;36.11
11971;BME280;6045;42.682;23.294;2023-03-18T11:21:19;94969.13;;;13.27;36.14
11971;BME280;6045;42.682;23.294;2023-03-18T11:23:55;94970.19;;;13.03;38.04
11971;BME280;6045;42.682;23.294;2023-03-18T11:26:45;94966.03;;;12.61;38.96
11971;BME280;6045;42.682;23.294;2023-03-18T11:29:16;94971.84;;;12.58;38.48
11971;BME280;6045;42.682;23.294;2023-03-18T11:31:50;94967.28;;;12.81;36.96
11971;BME280;6045;42.682;23.294;2023-03-18T11:34:19;94958.88;;;14.42;37.39
11971;BME280;6045;42.682;23.294;2023-03-18T11:36:54;94955.13;;;15.58;30.65
11971;BME280;6045;42.682;23.294;2023-03-18T11:39:24;94949.28;;;16.19;30.75
11971;BME280;6045;42.682;23.294;2023-03-18T11:41:53;94945.13;;;17.17;30.36
11971;BME280;6045;42.682;23.294;2023-03-18T11:44:26;94951.94;;;17.87;29.23
11971;BME280;6045;42.682;23.294;2023-03-18T11:46:56;94944.72;;;18.78;26.40
11971;BME280;6045;42.682;23.294;2023-03-18T11:49:26;94949.84;;;18.99;28.72
11971;BME280;6045;42.682;23.294;2023-03-18T11:52:02;94947.16;;;18.64;29.42
11971;BME280;6045;42.682;23.294;2023-03-18T11:57:30;94950.16;;;18.48;26.00
11971;BME280;6045;42.682;23.294;2023-03-18T12:00:12;94959.44;;;17.69;26.69
11971;BME280;6045;42.682;23.294;2023-03-18T12:03:00;94951.69;;;18.03;25.28
11971;BME280;6045;42.682;23.294;2023-03-18T12:05:45;94957.59;;;17.80;25.46
11971;BME280;6045;42.682;23.294;2023-03-18T12:08:26;94954.00;;;17.59;25.71
11971;BME280;6045;42.682;23.294;2023-03-18T12:11:06;94957.63;;;17.85;26.09
11971;BME280;6045;42.682;23.294;2023-03-18T12:13:46;94954.94;;;18.00;26.99
11971;BME280;6045;42.682;23.294;2023-03-18T12:16:25;94957.94;;;18.04;26.24
11971;BME280;6045;42.682;23.294;2023-03-18T12:19:30;94946.75;;;16.71;27.62
11971;BME280;6045;42.682;23.294;2023-03-18T12:22:11;94955.34;;;17.10;28.70
11971;BME280;6045;42.682;23.294;2023-03-18T12:25:14;94946.53;;;18.02;27.15
11971;BME280;6045;42.682;23.294;2023-03-18T12:27:51;94940.13;;;18.83;26.56
11971;BME280;6045;42.682;23.294;2023-03-18T12:30:41;94947.94;;;19.05;26.36
11971;BME280;6045;42.682;23.294;2023-03-18T12:33:23;94940.63;;;18.10;28.17
11971;BME280;6045;42.682;23.294;2023-03-18T12:35:59;94940.63;;;18.10;26.18
11971;BME280;6045;42.682;23.294;2023-03-18T12:41:36;94948.53;;;18.77;24.00
11971;BME280;6045;42.682;23.294;2023-03-18T12:44:18;94934.63;;;19.19;24.88
11971;BME280;6045;42.682;23.294;2023-03-18T12:46:52;94937.00;;;19.35;25.87
11971;BME280;6045;42.682;23.294;2023-03-18T12:49:24;94932.50;;;19.00;25.27
11971;BME280;6045;42.682;23.294;2023-03-18T12:51:56;94927.72;;;20.10;23.44
11971;BME280;6045;42.682;23.294;2023-03-18T12:54:28;94934.56;;;20.47;23.35
11971;BME280;6045;42.682;23.294;2023-03-18T12:57:00;94939.13;;;19.58;24.44
11971;BME280;6045;42.682;23.294;2023-03-18T12:59:31;94943.56;;;19.24;24.43
11971;BME280;6045;42.682;23.294;2023-03-18T13:02:16;94929.97;;;19.39;23.88
11971;BME280;6045;42.682;23.294;2023-03-18T13:04:52;94936.06;;;18.81;24.45
11971;BME280;6045;42.682;23.294;2023-03-18T13:07:24;94935.56;;;18.49;24.94
11971;BME280;6045;42.682;23.294;2023-03-18T13:09:57;94943.38;;;18.80;25.01
11971;BME280;6045;42.682;23.294;2023-03-18T13:12:29;94944.41;;;19.04;24.53
11971;BME280;6045;42.682;23.294;2023-03-18T13:14:59;94929.50;;;19.86;23.11
11971;BME280;6045;42.682;23.294;2023-03-18T13:17:31;94926.00;;;19.81;24.80
11971;BME280;6045;42.682;23.294;2023-03-18T13:19:59;94933.66;;;20.22;23.36
11971;BME280;6045;42.682;23.294;2023-03-18T13:22:44;94927.09;;;19.79;24.51
11971;BME280;6045;42.682;23.294;2023-03-18T13:25:24;94941.81;;;19.68;24.13